Time;durP1;ratioP1;P1;durP2;ratioP2;P2;SDS_P1;SDS_P2;PMS_P1;PMS_P2;Temp;Humidity;BMP_temperature;BMP_pressure;BME280_temperature;BME280_humidity;BME280_pressure;Samples;Min_cycle;Max_cycle;Signal;HPM_P1;HPM_P2
2022/10/06 00:00:49;;;;;;;14.63;1.60;;;11.40;99.90;;;;;;5032869;28;20082;-46
2022/10/06 00:03:16;;;;;;;11.38;1.90;;;11.40;99.90;;;;;;5032362;28;20143;-45
2022/10/06 00:05:42;;;;;;;12.00;1.95;;;11.40;99.90;;;;;;5030755;28;20037;-49
2022/10/06 00:08:08;;;;;;;14.02;2.42;;;11.30;99.90;;;;;;5031963;28;20053;-51
2022/10/06 00:10:34;;;;;;;10.95;2.10;;;11.30;99.90;;;;;;5031769;28;20026;-52
2022/10/06 00:13:00;;;;;;;12.30;2.13;;;11.30;99.90;;;;;;5031773;28;20025;-46
2022/10/06 00:15:29;;;;;;;9.18;1.50;;;11.20;99.90;;;;;;5031674;28;20380;-46
2022/10/06 00:17:56;;;;;;;10.70;1.80;;;11.20;99.90;;;;;;5031499;28;20480;-47
2022/10/06 00:20:22;;;;;;;10.45;1.60;;;11.10;99.90;;;;;;5030301;28;20702;-48
2022/10/06 00:22:48;;;;;;;8.77;1.48;;;11.10;99.90;;;;;;5031634;28;20104;-50
2022/10/06 00:25:20;;;;;;;14.18;1.90;;;11.10;99.90;;;;;;5031630;28;20060;-48
2022/10/06 00:27:48;;;;;;;11.13;1.45;;;11.00;99.90;;;;;;5031792;28;20034;-46
2022/10/06 00:30:18;;;;;;;12.10;1.40;;;11.10;99.90;;;;;;5031343;28;20052;-52
2022/10/06 00:32:56;;;;;;;14.10;1.45;;;11.00;99.90;;;;;;5031566;28;20068;-53
2022/10/06 00:35:24;;;;;;;10.68;1.80;;;11.00;99.90;;;;;;5031269;28;20080;-49
2022/10/06 00:37:50;;;;;;;12.65;1.90;;;11.00;99.90;;;;;;5031561;28;20030;-49
2022/10/06 00:40:16;;;;;;;9.82;1.70;;;11.00;99.90;;;;;;5031051;28;20417;-52
2022/10/06 00:42:49;;;;;;;9.30;1.60;;;10.90;99.90;;;;;;5031369;28;20025;-51
2022/10/06 00:45:17;;;;;;;12.10;1.70;;;10.90;99.90;;;;;;5030467;28;20025;-50
2022/10/06 00:47:42;;;;;;;12.57;1.80;;;10.80;99.90;;;;;;5031010;28;20022;-54
2022/10/06 00:50:10;;;;;;;9.98;1.83;;;10.80;99.90;;;;;;5030927;28;20034;-53
2022/10/06 00:52:38;;;;;;;6.00;2.30;;;10.70;99.90;;;;;;5030001;28;20053;-48
2022/10/06 00:55:08;;;;;;;8.88;1.70;;;10.70;99.90;;;;;;5031137;28;20044;-55
2022/10/06 00:57:38;;;;;;;11.98;2.38;;;10.60;99.90;;;;;;5030923;28;20472;-51
2022/10/06 01:00:07;;;;;;;10.38;1.70;;;10.60;99.90;;;;;;5030959;28;20452;-49
2022/10/06 01:02:40;;;;;;;11.98;1.60;;;10.50;99.90;;;;;;5030997;28;20017;-45
2022/10/06 01:05:08;;;;;;;22.42;3.17;;;10.50;99.90;;;;;;5030921;28;20057;-45
2022/10/06 01:07:34;;;;;;;8.93;1.63;;;10.50;99.90;;;;;;5030888;28;20029;-48
2022/10/06 01:10:00;;;;;;;16.02;2.17;;;10.40;99.90;;;;;;5029106;28;20047;-47
2022/10/06 01:12:29;;;;;;;8.50;1.42;;;10.30;99.90;;;;;;5030613;28;20032;-51
2022/10/06 01:14:55;;;;;;;7.90;1.90;;;10.30;99.90;;;;;;5030743;28;20029;-45
2022/10/06 01:17:47;;;;;;;5.85;1.38;;;10.30;99.90;;;;;;5030626;28;20033;-45
2022/10/06 01:20:17;;;;;;;9.93;1.50;;;10.20;99.90;;;;;;5029642;28;20033;-44
2022/10/06 01:22:46;;;;;;;;;;;10.20;99.90;;;;;;5031170;28;20021;-45
2022/10/06 01:25:15;;;;;;;8.80;1.70;;;10.20;99.90;;;;;;5030694;28;19917;-46
2022/10/06 01:27:44;;;;;;;14.83;1.67;;;10.10;99.90;;;;;;5030723;28;20018;-47
2022/10/06 01:30:15;;;;;;;10.90;1.90;;;10.10;99.90;;;;;;5030715;28;20617;-49
2022/10/06 01:32:40;;;;;;;7.47;1.58;;;10.10;99.90;;;;;;5030623;28;20025;-47
2022/10/06 01:35:08;;;;;;;9.20;1.35;;;10.00;99.90;;;;;;5030596;28;20084;-45
2022/10/06 01:37:34;;;;;;;16.45;1.75;;;10.00;99.90;;;;;;5030406;28;20032;-47
2022/10/06 01:39:59;;;;;;;6.90;1.30;;;10.00;99.90;;;;;;5030526;28;20033;-51
2022/10/06 01:42:25;;;;;;;9.23;1.42;;;10.00;99.90;;;;;;5030513;28;20075;-50
2022/10/06 01:44:51;;;;;;;12.65;1.45;;;9.90;99.90;;;;;;5029704;28;20661;-46
2022/10/06 01:47:17;;;;;;;8.27;1.65;;;9.90;99.90;;;;;;5030211;28;20021;-44
2022/10/06 01:49:42;;;;;;;12.63;1.67;;;9.80;99.90;;;;;;5030085;28;20492;-45
2022/10/06 01:52:08;;;;;;;12.45;2.00;;;9.80;99.90;;;;;;5030339;28;20516;-48
2022/10/06 01:54:34;;;;;;;6.47;1.17;;;9.80;99.90;;;;;;5030360;28;20100;-51
2022/10/06 01:56:59;;;;;;;11.48;1.98;;;9.70;99.90;;;;;;5030684;28;20116;-44
2022/10/06 01:59:25;;;;;;;8.70;1.63;;;9.70;99.90;;;;;;5030435;28;20120;-45
2022/10/06 02:01:51;;;;;;;6.10;1.33;;;9.70;99.90;;;;;;5030322;28;20530;-46
2022/10/06 02:04:17;;;;;;;11.30;1.98;;;9.60;99.90;;;;;;5030250;28;20050;-49
2022/10/06 02:06:42;;;;;;;9.95;1.33;;;9.60;99.90;;;;;;5030207;28;20022;-52
2022/10/06 02:09:08;;;;;;;8.10;1.30;;;9.50;99.90;;;;;;5030209;28;20048;-50
2022/10/06 02:11:34;;;;;;;9.43;1.50;;;9.40;99.90;;;;;;5030226;28;20524;-46
2022/10/06 02:14:00;;;;;;;6.80;1.20;;;9.40;99.90;;;;;;5030057;28;20018;-48
2022/10/06 02:16:27;;;;;;;9.27;1.58;;;9.40;99.90;;;;;;5030382;28;20465;-51
2022/10/06 02:18:53;;;;;;;8.07;1.25;;;9.30;99.90;;;;;;5030006;28;20009;-48
2022/10/06 02:21:21;;;;;;;5.32;1.13;;;9.20;99.90;;;;;;5030236;28;20516;-48
2022/10/06 02:23:47;;;;;;;11.20;1.38;;;9.20;99.90;;;;;;5030159;28;20432;-45
2022/10/06 02:26:16;;;;;;;12.48;2.13;;;9.20;99.90;;;;;;5030389;28;20076;-46
2022/10/06 02:28:43;;;;;;;8.63;1.53;;;9.10;99.90;;;;;;5031809;28;20030;-48
2022/10/06 02:31:10;;;;;;;9.70;1.05;;;9.10;99.90;;;;;;5033690;28;20064;-45
2022/10/06 02:33:37;;;;;;;10.63;1.30;;;9.10;99.90;;;;;;5033614;28;20071;-49
2022/10/06 02:36:03;;;;;;;5.35;0.90;;;9.00;99.90;;;;;;5033554;28;20026;-48
2022/10/06 02:38:31;;;;;;;5.85;1.05;;;9.00;99.90;;;;;;5033724;28;20147;-44
2022/10/06 02:40:57;;;;;;;6.40;1.55;;;9.00;99.90;;;;;;5033165;28;20036;-54
2022/10/06 02:43:27;;;;;;;5.65;1.33;;;9.00;99.90;;;;;;5033237;28;20064;-47
2022/10/06 02:45:54;;;;;;;12.13;1.45;;;9.00;99.90;;;;;;5031530;28;20064;-47
2022/10/06 02:48:21;;;;;;;12.35;1.83;;;8.90;99.90;;;;;;5033074;28;20175;-54
2022/10/06 02:51:11;;;;;;;9.73;1.48;;;8.90;99.90;;;;;;5032960;28;20087;-45
2022/10/06 02:53:38;;;;;;;11.98;1.38;;;8.90;99.90;;;;;;5033457;28;20029;-47
2022/10/06 02:56:05;;;;;;;10.05;1.55;;;9.00;99.90;;;;;;5033094;28;20045;-44
2022/10/06 02:58:31;;;;;;;8.63;1.40;;;8.90;99.90;;;;;;5033308;28;20030;-49
2022/10/06 03:01:06;;;;;;;11.45;1.42;;;8.90;99.90;;;;;;5033506;28;20595;-54
2022/10/06 03:03:34;;;;;;;5.97;1.25;;;8.90;99.90;;;;;;5033093;28;20045;-45
2022/10/06 03:06:20;;;;;;;9.70;1.40;;;8.90;99.90;;;;;;5033367;28;20053;-47
2022/10/06 03:08:50;;;;;;;9.13;1.48;;;8.90;99.90;;;;;;5031930;28;20026;-47
2022/10/06 03:11:20;;;;;;;8.15;1.25;;;8.90;99.90;;;;;;5032775;28;20132;-50
2022/10/06 03:13:46;;;;;;;;;;;8.80;99.90;;;;;;5033537;28;20096;-45
2022/10/06 03:16:18;;;;;;;8.38;1.00;;;8.80;99.90;;;;;;5032935;28;19947;-50
2022/10/06 03:18:48;;;;;;;7.95;1.30;;;8.80;99.90;;;;;;5032815;28;20362;-47
2022/10/06 03:21:18;;;;;;;6.25;1.45;;;8.80;99.90;;;;;;5032858;28;20025;-48
2022/10/06 03:23:46;;;;;;;5.82;1.02;;;8.70;99.90;;;;;;5032553;28;20021;-52
2022/10/06 03:26:16;;;;;;;6.57;1.40;;;8.70;99.90;;;;;;5032720;28;20038;-46
2022/10/06 03:28:43;;;;;;;6.30;1.52;;;8.60;99.90;;;;;;5032472;28;20018;-51
2022/10/06 03:31:09;;;;;;;8.80;1.90;;;8.60;99.90;;;;;;5032613;28;20033;-46
2022/10/06 03:33:34;;;;;;;9.15;1.50;;;8.60;99.90;;;;;;5032080;28;20080;-51
2022/10/06 03:36:15;;;;;;;8.45;1.60;;;8.60;99.90;;;;;;5031959;28;20076;-48
2022/10/06 03:38:41;;;;;;;5.63;1.23;;;8.60;99.90;;;;;;5032014;28;20032;-46
2022/10/06 03:41:10;;;;;;;7.18;1.23;;;8.50;99.90;;;;;;5032252;28;20021;-48
2022/10/06 03:43:36;;;;;;;8.93;1.38;;;8.50;99.90;;;;;;5032380;28;20116;-50
2022/10/06 03:46:03;;;;;;;9.85;1.30;;;8.40;99.90;;;;;;5032150;28;20393;-53
2022/10/06 03:48:32;;;;;;;6.95;1.10;;;8.40;99.90;;;;;;5032054;28;20116;-48
2022/10/06 03:51:00;;;;;;;8.05;1.30;;;8.40;99.90;;;;;;5032061;28;20515;-49
2022/10/06 03:53:28;;;;;;;6.55;1.70;;;8.40;99.90;;;;;;5032169;28;20420;-48
2022/10/06 03:56:05;;;;;;;11.15;1.70;;;8.40;99.90;;;;;;5032191;28;20072;-46
2022/10/06 03:58:32;;;;;;;11.38;2.17;;;8.40;99.90;;;;;;5032053;28;20112;-50
2022/10/06 04:01:15;;;;;;;9.90;2.03;;;8.30;99.90;;;;;;5031936;28;20036;-53
2022/10/06 04:03:41;;;;;;;9.13;1.35;;;8.20;99.90;;;;;;5031634;28;20049;-50
2022/10/06 04:06:11;;;;;;;13.20;1.88;;;8.10;99.90;;;;;;5031717;28;20511;-50
2022/10/06 04:08:38;;;;;;;8.13;1.20;;;8.10;99.90;;;;;;5031899;28;20020;-44
2022/10/06 04:11:12;;;;;;;8.70;1.88;;;8.00;99.90;;;;;;5031935;28;20532;-46
2022/10/06 04:13:39;;;;;;;10.82;1.40;;;7.90;99.90;;;;;;5031628;28;20451;-43
2022/10/06 04:16:09;;;;;;;10.48;1.55;;;7.90;99.90;;;;;;5030563;28;20025;-45
2022/10/06 04:18:35;;;;;;;7.88;1.15;;;7.90;99.90;;;;;;5031514;28;20496;-44
2022/10/06 04:21:00;;;;;;;4.63;0.80;;;7.80;99.90;;;;;;5031758;28;20025;-45
2022/10/06 04:23:26;;;;;;;6.18;1.30;;;7.80;99.90;;;;;;5031706;28;20033;-49
2022/10/06 04:25:58;;;;;;;5.65;1.10;;;7.70;99.90;;;;;;5031419;28;20041;-49
2022/10/06 04:28:24;;;;;;;8.73;1.33;;;7.70;99.90;;;;;;5031661;28;20021;-44
2022/10/06 04:30:57;;;;;;;5.97;1.02;;;7.70;99.90;;;;;;5031402;28;20121;-45
2022/10/06 04:33:23;;;;;;;6.30;1.50;;;7.60;99.90;;;;;;5031377;28;20018;-47
2022/10/06 04:35:57;;;;;;;6.53;1.50;;;7.60;99.90;;;;;;5031108;28;20585;-49
2022/10/06 04:38:23;;;;;;;6.85;1.83;;;7.60;99.90;;;;;;5024340;28;20060;-48
2022/10/06 04:40:48;;;;;;;7.15;1.33;;;7.60;99.90;;;;;;5031249;28;20048;-46
2022/10/06 04:43:14;;;;;;;5.88;1.27;;;7.60;99.90;;;;;;5031333;28;20025;-45
2022/10/06 04:45:39;;;;;;;7.00;1.65;;;7.60;99.90;;;;;;5031259;28;20076;-49
2022/10/06 04:48:05;;;;;;;7.38;1.60;;;7.60;99.90;;;;;;5031200;28;20021;-47
2022/10/06 04:50:30;;;;;;;11.80;1.60;;;7.50;99.90;;;;;;5029584;28;20116;-51
2022/10/06 04:52:56;;;;;;;7.78;1.40;;;7.50;99.90;;;;;;5030959;28;20033;-52
2022/10/06 04:55:22;;;;;;;5.55;1.00;;;7.50;99.90;;;;;;5031162;28;20036;-45
2022/10/06 04:57:47;;;;;;;6.00;1.25;;;7.40;99.90;;;;;;5031208;28;20029;-44
2022/10/06 05:00:22;;;;;;;5.30;1.30;;;7.40;99.90;;;;;;5031082;28;20527;-44
2022/10/06 05:02:48;;;;;;;12.45;1.42;;;7.40;99.90;;;;;;5030515;28;20057;-44
2022/10/06 05:05:14;;;;;;;4.13;1.10;;;7.40;99.90;;;;;;5030583;28;20084;-44
2022/10/06 05:07:42;;;;;;;13.88;1.60;;;7.40;99.90;;;;;;5030732;28;20025;-51
2022/10/06 05:10:08;;;;;;;7.80;1.95;;;7.40;99.90;;;;;;5030957;28;20037;-44
2022/10/06 05:12:33;;;;;;;11.00;1.42;;;7.30;99.90;;;;;;5031061;28;20083;-44
2022/10/06 05:14:59;;;;;;;5.68;1.23;;;7.30;99.90;;;;;;5031171;28;20104;-44
2022/10/06 05:17:24;;;;;;;5.90;1.80;;;7.20;99.90;;;;;;5031084;28;20025;-44
2022/10/06 05:19:50;;;;;;;5.60;1.20;;;7.20;99.90;;;;;;5031281;28;20108;-49
2022/10/06 05:22:16;;;;;;;6.80;1.20;;;7.10;99.90;;;;;;5030714;28;20064;-45
2022/10/06 05:24:41;;;;;;;6.93;1.50;;;7.00;99.90;;;;;;5030857;28;20451;-53
2022/10/06 05:27:07;;;;;;;4.60;1.10;;;7.10;99.90;;;;;;5031041;28;20116;-48
2022/10/06 05:29:33;;;;;;;8.23;1.38;;;7.00;99.90;;;;;;5030947;28;20475;-51
2022/10/06 05:31:59;;;;;;;8.23;1.48;;;7.10;99.90;;;;;;5030838;28;20032;-46
2022/10/06 05:34:24;;;;;;;11.38;1.52;;;7.10;99.90;;;;;;5030642;28;20480;-47
2022/10/06 05:36:50;;;;;;;5.40;1.35;;;7.10;99.90;;;;;;5030739;28;20032;-46
2022/10/06 05:39:16;;;;;;;8.55;1.25;;;7.10;99.90;;;;;;5030768;28;20034;-44
2022/10/06 05:41:41;;;;;;;6.38;1.20;;;7.00;99.90;;;;;;5030732;28;20103;-46
2022/10/06 05:44:07;;;;;;;5.40;1.08;;;7.10;99.90;;;;;;5030572;28;20025;-46
2022/10/06 05:46:34;;;;;;;11.27;1.50;;;7.10;99.90;;;;;;5030772;28;20057;-56
2022/10/06 05:49:06;;;;;;;9.10;1.33;;;7.10;99.90;;;;;;5030680;28;20052;-52
2022/10/06 05:51:34;;;;;;;8.52;1.33;;;7.10;99.90;;;;;;5030664;28;20033;-45
2022/10/06 05:54:00;;;;;;;5.93;1.67;;;7.10;99.90;;;;;;5030493;28;20033;-55
2022/10/06 05:56:27;;;;;;;5.40;1.10;;;7.00;99.90;;;;;;5029978;28;20083;-48
2022/10/06 05:58:54;;;;;;;6.72;1.52;;;7.00;99.90;;;;;;5030315;28;20032;-49
2022/10/06 06:01:24;;;;;;;7.78;1.60;;;6.90;99.90;;;;;;5028937;28;20049;-45
2022/10/06 06:03:52;;;;;;;7.65;1.30;;;6.90;99.90;;;;;;5032476;28;20527;-44
2022/10/06 06:06:21;;;;;;;12.02;1.70;;;6.90;99.90;;;;;;5034452;28;20037;-44
2022/10/06 06:08:50;;;;;;;3.67;1.07;;;6.90;99.90;;;;;;5034669;28;20017;-44
2022/10/06 06:11:16;;;;;;;;;;;6.90;99.90;;;;;;5034619;28;20022;-45
2022/10/06 06:13:42;;;;;;;3.42;1.00;;;6.90;99.90;;;;;;5034060;28;19905;-50
2022/10/06 06:16:12;;;;;;;3.67;1.08;;;6.90;99.90;;;;;;5034038;28;20048;-45
2022/10/06 06:18:38;;;;;;;5.55;1.40;;;6.90;99.90;;;;;;5033589;28;20029;-47
2022/10/06 06:21:06;;;;;;;6.72;1.23;;;6.90;99.90;;;;;;5033935;28;20457;-45
2022/10/06 06:23:45;;;;;;;10.50;1.42;;;6.90;99.90;;;;;;5033591;28;20032;-50
2022/10/06 06:26:16;;;;;;;9.73;1.70;;;7.00;99.90;;;;;;5021523;28;20041;-46
2022/10/06 06:28:45;;;;;;;7.43;1.92;;;7.00;99.90;;;;;;5033663;28;20022;-52
2022/10/06 06:31:16;;;;;;;13.90;2.00;;;7.00;99.90;;;;;;5033698;28;20030;-53
2022/10/06 06:33:42;;;;;;;8.57;1.45;;;7.10;99.90;;;;;;5033331;28;20464;-46
2022/10/06 06:36:15;;;;;;;5.70;1.40;;;7.10;99.90;;;;;;5033623;28;20091;-44
2022/10/06 06:38:41;;;;;;;7.35;1.42;;;7.10;99.90;;;;;;5033603;28;20032;-52
2022/10/06 06:41:27;;;;;;;6.10;1.60;;;7.10;99.90;;;;;;5033529;28;20072;-45
2022/10/06 06:43:53;;;;;;;8.52;1.73;;;7.10;99.90;;;;;;5033593;28;20473;-45
2022/10/06 06:46:23;;;;;;;8.13;1.77;;;7.20;99.90;;;;;;5033234;28;20033;-48
2022/10/06 06:48:53;;;;;;;8.30;1.73;;;7.30;99.90;;;;;;5033193;28;20076;-50
2022/10/06 06:51:22;;;;;;;7.78;2.13;;;7.40;99.90;;;;;;5032961;28;20029;-48
2022/10/06 06:53:51;;;;;;;13.10;3.47;;;7.40;99.90;;;;;;5033421;28;20447;-47
2022/10/06 06:56:18;;;;;;;12.05;4.10;;;7.50;99.90;;;;;;5032224;28;20040;-48
2022/10/06 06:58:46;;;;;;;8.23;2.78;;;7.50;99.90;;;;;;5032617;28;20029;-45
2022/10/06 07:01:13;;;;;;;8.65;2.40;;;7.60;99.90;;;;;;5032348;28;20060;-46
2022/10/06 07:03:41;;;;;;;9.68;3.78;;;7.70;99.90;;;;;;5031218;28;20073;-44
2022/10/06 07:06:09;;;;;;;14.75;4.18;;;7.80;99.90;;;;;;5032278;28;20088;-47
2022/10/06 07:08:41;;;;;;;19.13;7.00;;;7.80;99.90;;;;;;5032132;28;20018;-44
2022/10/06 07:11:14;;;;;;;18.00;6.00;;;7.90;99.90;;;;;;5030956;28;20384;-44
2022/10/06 07:13:41;;;;;;;17.10;6.80;;;8.00;99.90;;;;;;5031904;28;20537;-46
2022/10/06 07:27:07;;;;;;;14.07;4.43;;;8.60;99.90;;;;;;5032226;28;20205;-44
2022/10/06 07:29:33;;;;;;;18.52;5.25;;;8.70;99.90;;;;;;5032130;28;20392;-44
2022/10/06 07:31:58;;;;;;;11.15;4.28;;;8.80;99.90;;;;;;5031929;28;20451;-45
2022/10/06 07:34:25;;;;;;;11.38;3.42;;;8.80;99.90;;;;;;5032042;28;20112;-46
2022/10/06 07:36:52;;;;;;;12.75;3.50;;;8.90;99.90;;;;;;5032152;28;20061;-45
2022/10/06 07:39:19;;;;;;;11.38;3.25;;;9.00;99.90;;;;;;5032108;28;20030;-46
2022/10/06 07:41:45;;;;;;;13.77;3.72;;;9.20;99.90;;;;;;5029801;28;20083;-45
2022/10/06 07:44:11;;;;;;;10.52;3.63;;;9.40;99.90;;;;;;5031316;28;20145;-45
2022/10/06 07:46:36;;;;;;;12.20;3.10;;;9.60;99.90;;;;;;5030553;28;20104;-45
2022/10/06 07:49:02;;;;;;;10.82;3.47;;;9.70;99.90;;;;;;5030708;28;20021;-45
2022/10/06 07:51:28;;;;;;;13.50;3.47;;;9.80;99.90;;;;;;5031580;28;20033;-44
2022/10/06 07:53:54;;;;;;;14.65;3.03;;;10.00;99.90;;;;;;5031514;28;20050;-45
2022/10/06 07:56:20;;;;;;;12.02;3.35;;;10.10;99.90;;;;;;5031172;28;20021;-45
2022/10/06 07:58:46;;;;;;;8.80;3.50;;;10.30;99.90;;;;;;5031700;28;20025;-50
2022/10/06 08:01:15;;;;;;;14.90;3.67;;;10.60;99.90;;;;;;5031663;28;20033;-46
2022/10/06 08:03:42;;;;;;;14.88;3.15;;;11.10;99.90;;;;;;5031578;28;20071;-45
2022/10/06 08:06:14;;;;;;;10.90;2.80;;;12.00;99.90;;;;;;5031936;28;20045;-49
2022/10/06 08:08:41;;;;;;;8.32;2.85;;;13.10;99.90;;;;;;5029552;28;20404;-51
2022/10/06 08:11:08;;;;;;;9.52;2.22;;;14.40;99.90;;;;;;5030024;28;20041;-46
2022/10/06 08:13:42;;;;;;;11.30;2.10;;;15.70;99.90;;;;;;5030502;28;20036;-46
2022/10/06 08:16:13;;;;;;;6.88;2.15;;;16.40;99.90;;;;;;5030194;28;20036;-49
2022/10/06 08:18:40;;;;;;;7.75;2.17;;;17.40;99.90;;;;;;5030025;28;20018;-44
2022/10/06 08:21:18;;;;;;;8.90;2.33;;;17.80;99.90;;;;;;5027730;28;20065;-47
2022/10/06 08:23:46;;;;;;;11.05;2.50;;;18.00;99.90;;;;;;5030330;28;20113;-46
2022/10/06 08:26:13;;;;;;;7.00;2.05;;;18.60;99.90;;;;;;5029170;28;20038;-49
2022/10/06 08:28:38;;;;;;;9.27;1.80;;;19.20;99.90;;;;;;5032394;28;20078;-48
2022/10/06 08:31:10;;;;;;;7.47;2.30;;;20.10;99.90;;;;;;5031680;28;20052;-44
2022/10/06 08:33:41;;;;;;;11.85;2.05;;;21.20;99.70;;;;;;5030914;28;20032;-45
2022/10/06 08:36:09;;;;;;;14.20;2.70;;;21.50;96.30;;;;;;5032161;28;20056;-45
2022/10/06 08:38:36;;;;;;;9.32;2.05;;;21.50;96.60;;;;;;5032890;28;20037;-44
2022/10/06 08:41:23;;;;;;;3.72;1.60;;;21.90;95.50;;;;;;5034253;28;20701;-44
2022/10/06 08:44:00;;;;;;;7.90;2.45;;;22.10;96.70;;;;;;5042342;28;20024;-48
2022/10/06 08:46:33;;;;;;;9.48;2.10;;;23.10;94.30;;;;;;5035713;28;20034;-52
2022/10/06 08:49:00;;;;;;;6.90;1.67;;;23.70;92.50;;;;;;5032891;28;20024;-47
2022/10/06 08:51:46;;;;;;;6.70;1.92;;;23.80;91.50;;;;;;5030331;28;20028;-48
2022/10/06 08:54:23;;;;;;;6.75;1.80;;;24.20;92.30;;;;;;5031171;28;20032;-50
2022/10/06 08:56:53;;;;;;;8.63;1.95;;;24.70;87.70;;;;;;5035192;28;20021;-46
2022/10/06 08:59:20;;;;;;;9.00;1.77;;;25.00;88.90;;;;;;5026566;28;20102;-54
2022/10/06 09:01:48;;;;;;;7.38;1.67;;;25.60;87.20;;;;;;5029923;28;20025;-47
2022/10/06 09:04:25;;;;;;;8.35;2.20;;;25.70;83.90;;;;;;5031621;28;20042;-45
2022/10/06 09:07:06;;;;;;;6.85;1.73;;;26.10;83.30;;;;;;5031642;28;20033;-50
2022/10/06 09:10:08;;;;;;;7.40;1.83;;;26.90;78.20;;;;;;5032591;28;20034;-47
2022/10/06 09:12:43;;;;;;;7.20;1.85;;;27.20;78.10;;;;;;5030270;28;20032;-48
2022/10/06 09:15:08;;;;;;;7.55;1.70;;;27.40;74.00;;;;;;5029894;28;20041;-53
2022/10/06 09:17:40;;;;;;;9.93;2.97;;;27.80;73.70;;;;;;5030657;28;20075;-50
2022/10/06 09:20:19;;;;;;;12.10;2.22;;;27.90;72.20;;;;;;5028985;28;20022;-46
2022/10/06 09:22:47;;;;;;;9.85;2.55;;;28.10;73.10;;;;;;5025282;28;20029;-49
2022/10/06 09:25:21;;;;;;;12.45;3.03;;;28.50;71.40;;;;;;5026251;28;20504;-48
2022/10/06 09:27:52;;;;;;;9.95;2.42;;;28.50;67.80;;;;;;5030789;28;20025;-50
2022/10/06 09:30:18;;;;;;;13.07;2.88;;;28.40;66.60;;;;;;5034688;28;20080;-52
2022/10/06 09:32:47;;;;;;;9.38;2.47;;;27.90;64.70;;;;;;5029891;28;20066;-46
2022/10/06 09:35:21;;;;;;;10.70;2.40;;;28.10;66.30;;;;;;5031819;28;20013;-52
2022/10/06 09:38:02;;;;;;;11.57;2.97;;;28.00;67.30;;;;;;5032880;28;20030;-46
2022/10/06 09:40:36;;;;;;;12.93;2.85;;;27.80;66.70;;;;;;5035515;28;20465;-46
2022/10/06 09:43:24;;;;;;;12.63;2.25;;;28.20;66.20;;;;;;5036236;28;20033;-46
2022/10/06 09:45:51;;;;;;;12.80;2.30;;;28.10;64.60;;;;;;5032673;28;20079;-47
2022/10/06 09:48:23;;;;;;;11.05;2.20;;;28.00;65.10;;;;;;5032721;28;20025;-46
2022/10/06 09:51:13;;;;;;;11.82;2.22;;;27.50;66.40;;;;;;5032868;28;20567;-49
2022/10/06 09:53:39;;;;;;;8.00;2.00;;;27.90;66.50;;;;;;5033442;28;20487;-47
2022/10/06 09:56:17;;;;;;;10.05;2.53;;;28.10;64.60;;;;;;5033777;28;20076;-49
2022/10/06 09:58:57;;;;;;;12.95;2.03;;;27.60;65.20;;;;;;5033826;28;20020;-47
2022/10/06 10:01:28;;;;;;;11.25;2.38;;;27.80;61.40;;;;;;5033580;28;20477;-47
2022/10/06 10:04:03;;;;;;;11.32;1.95;;;27.10;62.30;;;;;;5032266;28;20037;-45
2022/10/06 10:06:33;;;;;;;14.90;2.90;;;27.60;64.40;;;;;;5033354;28;20544;-47
2022/10/06 10:09:22;;;;;;;11.73;1.98;;;27.90;61.90;;;;;;5033783;28;20029;-46
2022/10/06 10:12:23;;;;;;;10.10;1.80;;;28.00;61.20;;;;;;5034786;28;20401;-45
2022/10/06 10:15:22;;;;;;;9.02;2.50;;;28.10;62.10;;;;;;5035860;28;20091;-47
2022/10/06 10:17:51;;;;;;;;;;;28.20;63.10;;;;;;5038288;28;20387;-46
2022/10/06 10:20:36;;;;;;;6.55;1.83;;;28.40;58.70;;;;;;5035253;28;19913;-46
2022/10/06 10:23:04;;;;;;;8.80;1.85;;;28.10;57.80;;;;;;5043289;28;20059;-48
2022/10/06 10:25:35;;;;;;;10.93;2.10;;;28.20;56.50;;;;;;5039727;28;20423;-45
2022/10/06 10:28:07;;;;;;;11.52;2.40;;;28.60;58.00;;;;;;5037177;28;20553;-45
2022/10/06 10:30:48;;;;;;;7.03;2.10;;;29.10;58.50;;;;;;5026476;28;20121;-47
2022/10/06 10:33:54;;;;;;;11.48;2.05;;;28.60;56.10;;;;;;5028731;28;20019;-46
2022/10/06 10:36:38;;;;;;;7.65;1.70;;;27.60;56.00;;;;;;5029881;28;20487;-45
2022/10/06 10:39:08;;;;;;;8.48;1.60;;;26.70;58.40;;;;;;5033751;28;20118;-45
2022/10/06 10:41:43;;;;;;;7.65;1.92;;;26.30;60.30;;;;;;5031717;28;20052;-45
2022/10/06 10:44:14;;;;;;;8.65;1.80;;;26.00;61.10;;;;;;5034713;28;20032;-48
2022/10/06 10:46:49;;;;;;;11.98;1.60;;;25.10;62.40;;;;;;5029402;28;20033;-45
2022/10/06 10:49:24;;;;;;;8.52;1.58;;;25.40;61.60;;;;;;5031303;28;20022;-46
2022/10/06 10:51:54;;;;;;;13.30;2.33;;;25.80;61.20;;;;;;5033349;28;20040;-45
2022/10/06 10:54:27;;;;;;;8.32;1.92;;;25.50;60.60;;;;;;5034112;28;20492;-45
2022/10/06 10:56:53;;;;;;;8.13;2.30;;;25.80;62.80;;;;;;5030117;28;20017;-46
2022/10/06 10:59:54;;;;;;;9.45;1.85;;;25.60;60.40;;;;;;5034257;28;20071;-46
2022/10/06 11:02:21;;;;;;;10.05;1.92;;;24.90;63.50;;;;;;5032431;28;20021;-46
2022/10/06 11:04:51;;;;;;;10.25;1.83;;;25.40;65.50;;;;;;5031028;28;20049;-47
2022/10/06 11:07:19;;;;;;;8.50;2.22;;;25.60;63.20;;;;;;5028345;28;20032;-48
2022/10/06 11:10:12;;;;;;;7.80;1.58;;;25.40;60.50;;;;;;5032684;28;20031;-45
2022/10/06 11:12:45;;;;;;;8.27;1.88;;;25.10;63.00;;;;;;5029340;28;20429;-45
2022/10/06 11:15:14;;;;;;;7.90;1.77;;;25.20;67.00;;;;;;5031308;28;20075;-50
2022/10/06 11:17:43;;;;;;;7.18;2.00;;;25.30;63.40;;;;;;5031359;28;20026;-46
2022/10/06 11:20:20;;;;;;;10.02;2.08;;;25.00;63.70;;;;;;5028605;28;20125;-51
2022/10/06 11:23:10;;;;;;;9.95;2.40;;;24.40;60.80;;;;;;5021383;28;20048;-46
2022/10/06 11:25:58;;;;;;;6.78;2.00;;;24.00;63.60;;;;;;5031724;28;20044;-50
2022/10/06 11:28:36;;;;;;;9.13;1.53;;;24.10;62.90;;;;;;5032151;28;20026;-48
2022/10/06 11:31:11;;;;;;;10.55;1.63;;;24.20;66.20;;;;;;5031836;28;20021;-49
2022/10/06 11:33:52;;;;;;;8.27;1.50;;;24.30;65.90;;;;;;5031638;28;20473;-46
2022/10/06 11:36:44;;;;;;;10.07;2.00;;;24.30;65.70;;;;;;5029648;28;20060;-46
2022/10/06 11:39:19;;;;;;;10.07;1.90;;;23.70;66.40;;;;;;5020159;28;20033;-46
2022/10/06 11:42:23;;;;;;;12.35;1.85;;;23.70;65.90;;;;;;5031525;28;20037;-49
2022/10/06 11:44:55;;;;;;;8.70;1.30;;;23.60;66.20;;;;;;5029826;28;20087;-50
2022/10/06 11:47:29;;;;;;;7.35;1.25;;;23.50;63.30;;;;;;5031771;28;20105;-47
2022/10/06 11:49:55;;;;;;;10.95;1.55;;;23.90;64.60;;;;;;5031607;28;20079;-48
2022/10/06 11:52:20;;;;;;;12.65;1.90;;;24.30;64.60;;;;;;5030436;28;20025;-47
2022/10/06 11:54:52;;;;;;;11.20;1.58;;;25.20;63.00;;;;;;5031115;28;20037;-50
2022/10/06 11:57:25;;;;;;;12.20;2.00;;;25.60;62.90;;;;;;5034871;28;20048;-53
2022/10/06 11:59:55;;;;;;;8.60;1.90;;;25.50;59.60;;;;;;5036221;28;20087;-48
2022/10/06 12:02:39;;;;;;;9.25;1.67;;;25.40;60.90;;;;;;5026100;28;20021;-49
2022/10/06 12:05:08;;;;;;;8.95;1.63;;;25.30;63.40;;;;;;5030153;28;20080;-47
2022/10/06 12:07:55;;;;;;;9.70;1.70;;;25.80;62.30;;;;;;5031322;28;20025;-47
2022/10/06 12:10:33;;;;;;;10.50;1.83;;;26.00;62.70;;;;;;5030236;28;20265;-50
2022/10/06 12:13:18;;;;;;;9.90;1.50;;;26.30;61.70;;;;;;5029331;28;20040;-48
2022/10/06 12:15:52;;;;;;;9.48;1.73;;;26.70;63.70;;;;;;5029512;28;20034;-47
2022/10/06 12:18:18;;;;;;;17.60;2.13;;;26.30;60.90;;;;;;5029926;28;20071;-48
2022/10/06 12:20:58;;;;;;;9.48;2.20;;;25.00;63.30;;;;;;5033039;28;20115;-46
2022/10/06 12:23:39;;;;;;;12.80;2.05;;;23.80;62.50;;;;;;5029076;28;20056;-50
2022/10/06 12:26:48;;;;;;;8.00;2.00;;;23.10;68.20;;;;;;5023910;28;20038;-50
2022/10/06 12:29:16;;;;;;;;;;;22.40;68.80;;;;;;5030602;28;20112;-48
2022/10/06 12:31:59;;;;;;;12.77;2.03;;;22.40;68.80;;;;;;5033281;28;20380;-46
2022/10/06 12:35:02;;;;;;;9.10;1.67;;;22.20;68.30;;;;;;5033931;28;20027;-52
2022/10/06 12:37:27;;;;;;;9.70;1.73;;;21.70;70.70;;;;;;5032793;28;20021;-51
2022/10/06 12:40:31;;;;;;;11.48;2.10;;;21.70;73.60;;;;;;5027982;28;20408;-49
2022/10/06 12:43:21;;;;;;;12.25;1.80;;;21.40;71.10;;;;;;5027674;28;20037;-47
2022/10/06 12:46:15;;;;;;;11.85;1.55;;;20.90;74.50;;;;;;5034649;28;20052;-49
2022/10/06 12:49:00;;;;;;;12.13;1.98;;;20.30;74.00;;;;;;5025235;28;20124;-51
2022/10/06 12:51:39;;;;;;;10.60;1.65;;;20.00;76.30;;;;;;5027980;28;20167;-50
2022/10/06 12:54:19;;;;;;;11.02;1.70;;;20.00;79.70;;;;;;5024021;28;20025;-49
2022/10/06 12:57:18;;;;;;;10.50;2.05;;;20.20;79.50;;;;;;5034460;28;20021;-51
2022/10/06 12:59:45;;;;;;;9.43;1.63;;;20.50;77.80;;;;;;5028264;28;20037;-52
2022/10/06 13:02:20;;;;;;;7.32;1.52;;;20.40;78.60;;;;;;5029930;28;20086;-51
2022/10/06 13:05:09;;;;;;;10.88;2.22;;;20.50;79.30;;;;;;5029984;28;20149;-46
2022/10/06 13:08:04;;;;;;;15.68;2.42;;;20.60;79.40;;;;;;5029881;28;20033;-47
2022/10/06 13:10:31;;;;;;;12.10;2.47;;;20.80;80.10;;;;;;5029351;28;20032;-48
2022/10/06 13:12:57;;;;;;;13.00;2.42;;;20.90;79.70;;;;;;5030156;28;20108;-50
2022/10/06 13:15:23;;;;;;;11.23;1.65;;;20.90;77.80;;;;;;5028589;28;20030;-47
2022/10/06 13:18:21;;;;;;;9.38;1.83;;;20.90;78.70;;;;;;5026728;28;20037;-50
2022/10/06 13:20:51;;;;;;;8.25;1.50;;;20.80;78.30;;;;;;5028700;28;20018;-47